Time;durP1;ratioP1;P1;durP2;ratioP2;P2;SDS_P1;SDS_P2;PMS_P1;PMS_P2;Temp;Humidity;BMP_temperature;BMP_pressure;BME280_temperature;BME280_humidity;BME280_pressure;Samples;Min_cycle;Max_cycle;Signal;HPM_P1;HPM_P2
2022/12/08 00:01:07;;;;;;;76.20;68.45;;;4.60;99.90;;;;;;5073446;28;20036;-65
2022/12/08 00:03:33;;;;;;;21.02;18.80;;;4.40;99.90;;;;;;5073556;28;20020;-65
2022/12/08 00:11:28;;;;;;;26.48;23.65;;;4.60;99.90;;;;;;5073166;28;20066;-64
2022/12/08 00:13:54;;;;;;;19.45;15.63;;;4.40;99.90;;;;;;5073268;28;20033;-64
2022/12/08 00:16:20;;;;;;;16.52;13.02;;;4.50;99.90;;;;;;5072988;28;20029;-64
2022/12/08 00:18:45;;;;;;;18.23;12.93;;;4.60;99.90;;;;;;5078006;28;20099;-65
2022/12/08 00:21:11;;;;;;;14.02;11.90;;;4.50;99.90;;;;;;5093147;28;20167;-64
2022/12/08 00:23:37;;;;;;;16.70;15.00;;;4.60;99.90;;;;;;5093355;28;20069;-64
2022/12/08 00:26:03;;;;;;;21.00;18.58;;;4.60;99.90;;;;;;5093381;28;20476;-64
2022/12/08 00:28:30;;;;;;;15.52;12.88;;;4.60;99.90;;;;;;5093449;28;20480;-65
2022/12/08 00:30:56;;;;;;;15.82;11.50;;;4.50;99.90;;;;;;5102026;28;20044;-65
2022/12/08 00:33:22;;;;;;;14.48;12.02;;;4.70;99.90;;;;;;5113442;28;20053;-64
2022/12/08 00:35:47;;;;;;;15.23;12.07;;;4.60;99.90;;;;;;5112946;28;20475;-64
2022/12/08 00:38:13;;;;;;;15.98;11.85;;;4.60;99.90;;;;;;5113719;28;20016;-65
2022/12/08 00:40:44;;;;;;;16.02;12.35;;;4.60;99.90;;;;;;5113288;28;20032;-64
2022/12/08 00:43:10;;;;;;;16.45;12.95;;;4.50;99.90;;;;;;5113175;28;20023;-65
2022/12/08 00:45:35;;;;;;;21.33;15.68;;;4.40;99.90;;;;;;5113135;28;20505;-64
2022/12/08 00:48:01;;;;;;;20.35;16.00;;;4.40;99.90;;;;;;5113980;28;20024;-64
2022/12/08 00:50:27;;;;;;;19.73;16.83;;;4.40;99.90;;;;;;5113090;28;20454;-64
2022/12/08 00:52:52;;;;;;;17.58;14.20;;;4.60;99.90;;;;;;5113139;28;20106;-64
2022/12/08 00:55:18;;;;;;;17.63;13.27;;;4.50;99.90;;;;;;5112828;28;20046;-64
2022/12/08 00:57:44;;;;;;;19.35;13.82;;;4.60;99.90;;;;;;5112994;28;20020;-64
2022/12/08 01:00:10;;;;;;;18.05;14.77;;;4.50;99.90;;;;;;5113309;28;20043;-64
2022/12/08 01:02:36;;;;;;;20.77;18.23;;;4.60;99.90;;;;;;5113130;28;20019;-64
2022/12/08 01:05:01;;;;;;;22.20;18.48;;;4.60;99.90;;;;;;5112968;28;20070;-65
2022/12/08 01:07:27;;;;;;;20.20;16.02;;;4.60;99.90;;;;;;5112844;28;20047;-64
2022/12/08 01:09:53;;;;;;;16.30;13.75;;;4.60;99.90;;;;;;5113448;28;20134;-64
2022/12/08 01:12:19;;;;;;;18.33;13.50;;;4.60;99.90;;;;;;5094592;28;20051;-65
2022/12/08 01:14:44;;;;;;;15.93;12.07;;;4.50;99.90;;;;;;5113101;28;20038;-65
2022/12/08 01:17:10;;;;;;;19.23;12.10;;;4.50;99.90;;;;;;5112340;28;20028;-64
2022/12/08 01:19:36;;;;;;;13.65;11.30;;;4.50;99.90;;;;;;5112396;28;20024;-65
2022/12/08 01:22:02;;;;;;;16.33;11.23;;;4.50;99.90;;;;;;5112803;28;20024;-65
2022/12/08 01:24:28;;;;;;;16.25;11.55;;;4.40;99.90;;;;;;5112702;28;20095;-65
2022/12/08 01:26:53;;;;;;;16.25;11.82;;;4.40;99.90;;;;;;5111578;28;20523;-65
2022/12/08 01:29:19;;;;;;;15.60;12.13;;;4.50;99.90;;;;;;5112543;28;20088;-65
2022/12/08 01:31:45;;;;;;;15.57;11.40;;;4.50;99.90;;;;;;5112213;28;20050;-64
2022/12/08 01:34:11;;;;;;;15.60;11.05;;;4.40;99.90;;;;;;5112346;28;20036;-65
2022/12/08 01:36:37;;;;;;;16.08;11.27;;;4.40;99.90;;;;;;5112108;28;20033;-65
2022/12/08 01:39:05;;;;;;;19.13;11.95;;;4.40;99.90;;;;;;5112532;28;20024;-66
2022/12/08 01:41:33;;;;;;;13.90;10.65;;;4.30;99.90;;;;;;5112302;28;20574;-65
2022/12/08 01:44:09;;;;;;;14.52;10.60;;;4.40;99.90;;;;;;5112212;28;20036;-65
2022/12/08 01:46:40;;;;;;;16.65;10.82;;;4.40;99.90;;;;;;5111966;28;20020;-65
2022/12/08 01:49:17;;;;;;;17.25;11.05;;;4.40;99.90;;;;;;5112538;28;20365;-64
2022/12/08 01:51:58;;;;;;;18.02;10.55;;;4.40;99.90;;;;;;5112072;28;20030;-65
2022/12/08 01:54:28;;;;;;;18.08;11.73;;;4.30;99.90;;;;;;5112686;28;20126;-64
2022/12/08 01:56:56;;;;;;;17.80;11.45;;;4.30;99.90;;;;;;5111676;28;20101;-64
2022/12/08 01:59:23;;;;;;;16.13;11.38;;;4.20;99.90;;;;;;5112452;28;20024;-64
2022/12/08 02:01:50;;;;;;;16.40;11.65;;;4.30;99.90;;;;;;5111709;28;20020;-65
2022/12/08 02:04:16;;;;;;;16.63;11.52;;;4.30;99.90;;;;;;5112206;28;20023;-64
2022/12/08 02:06:44;;;;;;;15.82;11.27;;;4.30;99.90;;;;;;5111751;28;20042;-64
2022/12/08 02:09:10;;;;;;;18.95;13.23;;;4.30;99.90;;;;;;5111846;28;20119;-65
2022/12/08 02:11:36;;;;;;;20.70;15.30;;;4.40;99.90;;;;;;5112270;28;20103;-64
2022/12/08 02:14:05;;;;;;;23.23;15.20;;;4.20;99.90;;;;;;5111993;28;20106;-64
2022/12/08 02:16:38;;;;;;;21.65;14.95;;;4.20;99.90;;;;;;5093503;28;20085;-64
2022/12/08 02:19:22;;;;;;;20.07;14.27;;;4.20;99.90;;;;;;5111728;28;20115;-64
2022/12/08 02:21:58;;;;;;;16.98;13.15;;;4.30;99.90;;;;;;5094121;28;20726;-64
2022/12/08 02:24:34;;;;;;;16.88;12.40;;;4.30;99.90;;;;;;5112124;28;20019;-65
2022/12/08 02:27:18;;;;;;;16.08;12.98;;;4.40;99.90;;;;;;5093776;28;20027;-64
2022/12/08 02:29:59;;;;;;;16.70;12.05;;;4.40;99.90;;;;;;5111474;28;20046;-64
2022/12/08 02:33:10;;;;;;;14.90;12.02;;;4.40;99.90;;;;;;5071068;28;20390;-64
2022/12/08 02:35:57;;;;;;;14.63;10.93;;;4.40;99.90;;;;;;5070922;28;20500;-64
2022/12/08 02:38:37;;;;;;;14.93;10.85;;;4.50;99.90;;;;;;5072801;28;20025;-64
2022/12/08 02:41:28;;;;;;;15.02;10.82;;;4.50;99.90;;;;;;5075371;28;20028;-64
2022/12/08 02:44:14;;;;;;;14.82;10.63;;;4.50;99.90;;;;;;5075553;28;20472;-64
2022/12/08 02:46:46;;;;;;;14.95;11.07;;;4.50;99.90;;;;;;5075233;28;20037;-64
2022/12/08 02:49:14;;;;;;;16.08;10.82;;;4.50;99.90;;;;;;5075028;28;20031;-64
2022/12/08 02:51:40;;;;;;;12.63;10.70;;;4.50;99.90;;;;;;5074659;28;20029;-64
2022/12/08 02:54:05;;;;;;;14.73;10.75;;;4.50;99.90;;;;;;5074641;28;20041;-65
2022/12/08 02:56:46;;;;;;;14.15;11.07;;;4.40;99.90;;;;;;5074515;28;20354;-65
2022/12/08 02:59:40;;;;;;;15.07;11.02;;;4.40;99.90;;;;;;5074630;28;20473;-64
2022/12/08 03:02:35;;;;;;;13.67;10.83;;;4.40;99.90;;;;;;5074813;28;20040;-64
2022/12/08 03:05:15;;;;;;;15.60;11.48;;;4.40;99.90;;;;;;5068706;28;20275;-65
2022/12/08 03:07:49;;;;;;;14.40;11.48;;;4.40;99.90;;;;;;5074778;28;20077;-64
2022/12/08 03:10:30;;;;;;;15.80;11.55;;;4.40;99.90;;;;;;5074914;28;20412;-64
2022/12/08 03:13:12;;;;;;;13.30;10.90;;;4.40;99.90;;;;;;5074929;28;20081;-64
2022/12/08 03:15:40;;;;;;;18.13;11.38;;;4.40;99.90;;;;;;5074284;28;20516;-64
2022/12/08 03:18:09;;;;;;;14.27;10.70;;;4.40;99.90;;;;;;5074631;28;20025;-64
2022/12/08 03:20:37;;;;;;;14.40;10.90;;;4.40;99.90;;;;;;5054285;28;20040;-65
2022/12/08 03:23:07;;;;;;;14.07;11.07;;;4.40;99.90;;;;;;5054790;28;20087;-65
2022/12/08 03:25:39;;;;;;;15.27;10.65;;;4.40;99.90;;;;;;5054220;28;20032;-64
2022/12/08 03:28:05;;;;;;;16.80;11.90;;;4.40;99.90;;;;;;5053873;28;20165;-64
2022/12/08 03:30:35;;;;;;;14.48;11.38;;;4.30;99.90;;;;;;5064731;28;20610;-64
2022/12/08 03:33:07;;;;;;;15.27;11.57;;;4.30;99.90;;;;;;5094104;28;20023;-64
2022/12/08 03:35:37;;;;;;;15.20;11.30;;;4.30;99.90;;;;;;5095529;28;20484;-64
2022/12/08 03:38:11;;;;;;;13.73;11.27;;;4.30;99.90;;;;;;5115046;28;20024;-64
2022/12/08 03:40:38;;;;;;;16.35;11.35;;;4.30;99.90;;;;;;5114938;28;20020;-64
2022/12/08 03:43:04;;;;;;;16.23;11.70;;;4.30;99.90;;;;;;5114364;28;20098;-64
2022/12/08 03:45:30;;;;;;;14.35;11.90;;;4.20;99.90;;;;;;5114526;28;20535;-64
2022/12/08 03:47:57;;;;;;;15.15;11.52;;;4.20;99.90;;;;;;5114767;28;20072;-64
2022/12/08 03:50:22;;;;;;;18.25;12.27;;;4.20;99.90;;;;;;5113387;28;20345;-64
2022/12/08 03:52:48;;;;;;;15.43;12.18;;;4.20;99.90;;;;;;5114516;28;20107;-64
2022/12/08 03:55:14;;;;;;;16.70;12.75;;;4.10;99.90;;;;;;5114351;28;20059;-65
2022/12/08 03:57:40;;;;;;;16.52;12.20;;;4.20;99.90;;;;;;5114007;28;20019;-64
2022/12/08 04:00:11;;;;;;;15.10;12.63;;;4.20;99.90;;;;;;5114201;28;20028;-64
2022/12/08 04:02:37;;;;;;;17.63;13.63;;;4.00;99.90;;;;;;5114197;28;20106;-64
2022/12/08 04:05:03;;;;;;;16.63;12.85;;;4.00;99.90;;;;;;5114068;28;20115;-65
2022/12/08 04:07:29;;;;;;;16.50;13.38;;;4.10;99.90;;;;;;5114109;28;20019;-65
2022/12/08 04:09:54;;;;;;;17.75;13.35;;;4.10;99.90;;;;;;5114476;28;20058;-65
2022/12/08 04:12:20;;;;;;;16.00;12.68;;;4.10;99.90;;;;;;5113754;28;20016;-64
2022/12/08 04:14:46;;;;;;;15.20;12.52;;;4.10;99.90;;;;;;5113835;28;20104;-64
2022/12/08 04:17:12;;;;;;;21.88;18.73;;;4.10;99.90;;;;;;5114317;28;20499;-64
2022/12/08 04:19:39;;;;;;;18.13;14.40;;;4.10;99.90;;;;;;5113635;28;20062;-65
2022/12/08 04:22:06;;;;;;;16.80;14.98;;;4.10;99.90;;;;;;5113681;28;20483;-65
2022/12/08 04:24:31;;;;;;;15.73;12.95;;;4.10;99.90;;;;;;5113609;28;20453;-64
2022/12/08 04:26:57;;;;;;;20.08;16.27;;;4.10;99.90;;;;;;5113690;28;20034;-65
2022/12/08 04:29:23;;;;;;;19.05;13.30;;;4.10;99.90;;;;;;5113704;28;20032;-65
2022/12/08 04:31:49;;;;;;;14.57;12.80;;;4.20;99.90;;;;;;5113134;28;20404;-65
2022/12/08 04:34:14;;;;;;;14.85;12.75;;;4.10;99.90;;;;;;5113726;28;20039;-64
2022/12/08 04:36:40;;;;;;;14.95;12.25;;;4.00;99.90;;;;;;5113276;28;20498;-64
2022/12/08 04:39:06;;;;;;;25.83;21.25;;;4.00;99.90;;;;;;5113695;28;20043;-64
2022/12/08 04:41:32;;;;;;;22.10;16.95;;;4.10;99.90;;;;;;5113533;28;20098;-65
2022/12/08 04:43:57;;;;;;;15.75;13.68;;;4.10;99.90;;;;;;5113561;28;20024;-65
2022/12/08 04:46:23;;;;;;;16.38;12.80;;;4.00;99.90;;;;;;5113259;28;20019;-64
2022/12/08 04:48:49;;;;;;;16.17;12.25;;;4.00;99.90;;;;;;5113527;28;20476;-64
2022/12/08 04:51:17;;;;;;;15.95;13.00;;;3.90;99.90;;;;;;5113597;28;20026;-64
2022/12/08 04:53:43;;;;;;;17.63;13.75;;;4.00;99.90;;;;;;5113371;28;20024;-64
2022/12/08 04:56:15;;;;;;;22.92;19.77;;;4.00;99.90;;;;;;5112806;28;20103;-65
2022/12/08 04:58:40;;;;;;;14.40;11.60;;;4.10;99.90;;;;;;5094741;28;20081;-64
2022/12/08 05:01:07;;;;;;;14.60;12.23;;;4.00;99.90;;;;;;5112590;28;20499;-64
2022/12/08 05:03:32;;;;;;;25.83;23.05;;;3.90;99.90;;;;;;5112798;28;20106;-64
2022/12/08 05:05:59;;;;;;;20.95;18.67;;;3.90;99.90;;;;;;5113162;28;20035;-64
2022/12/08 05:08:25;;;;;;;16.15;13.50;;;3.90;99.90;;;;;;5112676;28;20026;-64
2022/12/08 05:10:51;;;;;;;15.95;12.52;;;4.00;99.90;;;;;;5094299;28;20028;-65
2022/12/08 05:13:16;;;;;;;14.75;12.18;;;4.00;99.90;;;;;;5113273;28;20095;-64
2022/12/08 05:15:42;;;;;;;17.08;12.15;;;3.90;99.90;;;;;;5113073;28;20039;-64
2022/12/08 05:18:08;;;;;;;15.18;13.38;;;3.80;99.90;;;;;;5112788;28;20098;-64
2022/12/08 05:20:34;;;;;;;15.07;12.80;;;3.80;99.90;;;;;;5112509;28;20402;-65
2022/12/08 05:22:59;;;;;;;15.32;11.90;;;3.80;99.90;;;;;;5112728;28;20016;-65
2022/12/08 05:25:25;;;;;;;16.48;12.80;;;3.80;99.90;;;;;;5093788;28;20080;-65
2022/12/08 05:27:51;;;;;;;13.90;12.38;;;3.80;99.90;;;;;;5112500;28;20110;-64
2022/12/08 05:30:17;;;;;;;13.30;11.90;;;3.90;99.90;;;;;;5112567;28;20050;-64
2022/12/08 05:32:43;;;;;;;15.85;12.50;;;3.80;99.90;;;;;;5112193;28;20031;-64
2022/12/08 05:35:09;;;;;;;15.65;12.43;;;3.80;99.90;;;;;;5112276;28;20035;-64
2022/12/08 05:37:35;;;;;;;14.50;12.77;;;3.80;99.90;;;;;;5112227;28;20126;-65
2022/12/08 05:40:00;;;;;;;14.38;12.88;;;3.80;99.90;;;;;;5112262;28;20059;-64
2022/12/08 05:42:26;;;;;;;15.32;13.40;;;3.80;99.90;;;;;;5112353;28;20020;-64
2022/12/08 05:44:52;;;;;;;14.18;12.68;;;3.80;99.90;;;;;;5112090;28;20434;-64
2022/12/08 05:47:18;;;;;;;16.45;12.95;;;3.80;99.90;;;;;;5112320;28;20098;-64
2022/12/08 05:49:43;;;;;;;15.18;12.95;;;3.90;99.90;;;;;;5112437;28;20027;-64
2022/12/08 05:52:09;;;;;;;13.95;12.10;;;3.80;99.90;;;;;;5112025;28;20023;-64
2022/12/08 05:54:35;;;;;;;14.95;13.35;;;3.90;99.90;;;;;;5111661;28;20039;-65
2022/12/08 05:57:01;;;;;;;14.52;12.65;;;3.80;99.90;;;;;;5112071;28;20020;-64
2022/12/08 05:59:26;;;;;;;13.85;12.45;;;3.80;99.90;;;;;;5112620;28;20484;-64
2022/12/08 06:01:52;;;;;;;14.82;12.98;;;3.80;99.90;;;;;;5112035;28;20028;-64
2022/12/08 06:04:18;;;;;;;15.27;12.68;;;3.80;99.90;;;;;;5112141;28;20023;-65
2022/12/08 06:06:43;;;;;;;15.80;12.32;;;3.90;99.90;;;;;;5112016;28;20487;-65
2022/12/08 06:09:09;;;;;;;18.30;12.85;;;3.80;99.90;;;;;;5111698;28;20012;-64
2022/12/08 06:11:35;;;;;;;14.27;12.43;;;3.80;99.90;;;;;;5111872;28;20543;-64
2022/12/08 06:14:02;;;;;;;15.73;13.60;;;3.90;99.90;;;;;;5113876;28;20556;-64
2022/12/08 06:16:28;;;;;;;15.20;13.60;;;3.90;99.90;;;;;;5116230;28;20153;-64
2022/12/08 06:18:54;;;;;;;16.55;13.65;;;3.90;99.90;;;;;;5115798;28;20027;-64
2022/12/08 06:21:20;;;;;;;16.60;14.63;;;3.80;99.90;;;;;;5115930;28;20556;-64
2022/12/08 06:23:50;;;;;;;17.73;15.02;;;4.00;99.90;;;;;;5115550;28;20024;-64
2022/12/08 06:26:16;;;;;;;17.45;15.13;;;4.00;99.90;;;;;;5115697;28;20160;-64
2022/12/08 06:28:43;;;;;;;17.23;14.90;;;4.00;99.90;;;;;;5115589;28;20081;-64
2022/12/08 06:31:12;;;;;;;15.63;13.23;;;4.00;99.90;;;;;;5116079;28;20040;-64
2022/12/08 06:33:37;;;;;;;15.85;13.27;;;4.10;99.90;;;;;;5115531;28;20031;-64
2022/12/08 06:36:04;;;;;;;15.30;13.55;;;4.10;99.90;;;;;;5115330;28;20368;-64
2022/12/08 06:38:31;;;;;;;15.38;13.77;;;4.00;99.90;;;;;;5115390;28;20483;-64
2022/12/08 06:40:57;;;;;;;15.25;13.65;;;4.00;99.90;;;;;;5115397;28;20537;-64
2022/12/08 06:43:24;;;;;;;15.52;13.80;;;3.90;99.90;;;;;;5115560;28;20020;-64
2022/12/08 06:45:50;;;;;;;15.13;13.48;;;3.90;99.90;;;;;;5115389;28;20032;-64
2022/12/08 06:48:16;;;;;;;17.50;13.77;;;3.90;99.90;;;;;;5115382;28;20019;-64
2022/12/08 06:50:42;;;;;;;16.60;14.80;;;3.90;99.90;;;;;;5115000;28;20450;-64
2022/12/08 06:53:11;;;;;;;14.38;12.88;;;3.90;99.90;;;;;;5115386;28;20030;-64
2022/12/08 06:55:41;;;;;;;15.15;13.60;;;4.00;99.90;;;;;;5114963;28;20068;-64
2022/12/08 06:58:07;;;;;;;15.82;14.13;;;3.90;99.90;;;;;;5115024;28;20030;-64
2022/12/08 07:00:33;;;;;;;18.85;16.85;;;3.90;99.90;;;;;;5115661;28;20031;-66
2022/12/08 07:02:59;;;;;;;20.45;18.38;;;3.90;99.90;;;;;;5116146;28;20507;-66
2022/12/08 07:05:24;;;;;;;25.10;22.50;;;3.90;99.90;;;;;;5096682;28;20015;-66
2022/12/08 07:07:50;;;;;;;17.63;15.07;;;3.90;99.90;;;;;;5115118;28;20031;-65
2022/12/08 07:10:16;;;;;;;16.05;14.35;;;3.80;99.90;;;;;;5114984;28;20324;-66
2022/12/08 07:12:41;;;;;;;16.85;15.10;;;3.90;99.90;;;;;;5115103;28;20065;-65
2022/12/08 07:15:08;;;;;;;15.88;14.27;;;3.80;99.90;;;;;;5115019;28;20122;-66
2022/12/08 07:17:33;;;;;;;17.10;15.30;;;3.80;99.90;;;;;;5115371;28;20028;-66
2022/12/08 07:19:59;;;;;;;17.92;15.18;;;3.80;99.90;;;;;;5114166;28;20035;-63
2022/12/08 07:22:25;;;;;;;19.50;15.90;;;3.80;99.90;;;;;;5115115;28;20027;-63
2022/12/08 07:24:50;;;;;;;19.25;16.48;;;3.80;99.90;;;;;;5114616;28;20034;-67
2022/12/08 07:27:16;;;;;;;19.25;16.33;;;3.80;99.90;;;;;;5115222;28;20020;-67
2022/12/08 07:29:42;;;;;;;18.73;16.52;;;3.70;99.90;;;;;;5114798;28;20024;-64
2022/12/08 07:32:07;;;;;;;17.30;15.55;;;3.60;99.90;;;;;;5114467;28;20084;-66
2022/12/08 07:34:33;;;;;;;18.20;16.17;;;3.70;99.90;;;;;;5114392;28;20035;-66
2022/12/08 07:36:59;;;;;;;17.50;15.55;;;3.60;99.90;;;;;;5114475;28;20141;-67
2022/12/08 07:39:24;;;;;;;31.15;26.58;;;3.70;99.90;;;;;;5113669;28;20064;-67
2022/12/08 07:41:50;;;;;;;19.85;17.85;;;3.70;99.90;;;;;;5113822;28;20458;-67
2022/12/08 07:44:16;;;;;;;26.00;23.40;;;3.70;99.90;;;;;;5096967;28;20027;-67
2022/12/08 07:46:41;;;;;;;28.27;25.27;;;3.70;99.90;;;;;;5113968;28;20280;-67
2022/12/08 07:49:07;;;;;;;25.33;22.38;;;3.70;99.90;;;;;;5114110;28;20024;-68
2022/12/08 07:51:33;;;;;;;24.98;22.35;;;3.70;99.90;;;;;;5114268;28;20049;-68
2022/12/08 07:53:58;;;;;;;22.02;19.73;;;3.80;99.90;;;;;;5114124;28;20442;-67
2022/12/08 07:56:24;;;;;;;19.38;17.48;;;3.80;99.90;;;;;;5113984;28;20031;-68
2022/12/08 07:58:50;;;;;;;18.70;16.30;;;3.90;99.90;;;;;;5114208;28;20030;-68
2022/12/08 08:01:34;;;;;;;19.17;16.30;;;4.00;99.90;;;;;;5114514;28;20020;-68
2022/12/08 08:04:03;;;;;;;16.95;15.18;;;4.00;99.90;;;;;;5114309;28;20425;-68
2022/12/08 08:06:29;;;;;;;18.85;16.40;;;4.00;99.90;;;;;;5114029;28;20412;-68
2022/12/08 08:08:55;;;;;;;19.40;16.85;;;4.00;99.90;;;;;;5113981;28;20063;-68
2022/12/08 08:11:20;;;;;;;19.90;16.75;;;3.90;99.90;;;;;;5114266;28;20047;-68
2022/12/08 08:13:46;;;;;;;17.48;14.80;;;4.00;99.90;;;;;;5114047;28;20074;-68
2022/12/08 08:16:12;;;;;;;17.20;14.85;;;4.10;99.90;;;;;;5113823;28;20077;-68
2022/12/08 08:18:39;;;;;;;15.18;13.70;;;4.00;99.90;;;;;;5113338;28;20019;-68
2022/12/08 08:21:05;;;;;;;17.42;14.63;;;4.10;99.90;;;;;;5113840;28;20035;-68
2022/12/08 08:23:32;;;;;;;16.00;14.00;;;4.10;99.90;;;;;;5113543;28;20027;-67
2022/12/08 08:25:59;;;;;;;16.10;14.10;;;4.10;99.90;;;;;;5114051;28;20105;-68
2022/12/08 08:28:25;;;;;;;16.45;14.50;;;4.10;99.90;;;;;;5113644;28;20047;-68
2022/12/08 08:30:51;;;;;;;16.65;14.95;;;4.10;99.90;;;;;;5113478;28;20104;-67
2022/12/08 08:33:16;;;;;;;16.50;14.23;;;4.20;99.90;;;;;;5113142;28;20028;-67
2022/12/08 08:35:42;;;;;;;17.10;14.65;;;4.30;99.90;;;;;;5113184;28;20030;-67
2022/12/08 08:38:08;;;;;;;16.70;14.95;;;4.30;99.90;;;;;;5113479;28;20027;-67
2022/12/08 08:40:34;;;;;;;17.50;15.77;;;4.30;99.90;;;;;;5113531;28;20038;-67
2022/12/08 08:43:00;;;;;;;18.55;16.52;;;4.30;99.90;;;;;;5112971;28;20410;-64
2022/12/08 08:45:27;;;;;;;16.55;14.85;;;4.40;99.90;;;;;;5112945;28;20027;-65
2022/12/08 08:47:52;;;;;;;16.02;14.32;;;4.40;99.90;;;;;;5112053;28;20027;-64
2022/12/08 08:50:18;;;;;;;17.02;14.15;;;4.50;99.90;;;;;;5112815;28;20387;-65
2022/12/08 08:52:44;;;;;;;16.63;14.63;;;4.60;99.90;;;;;;5112336;28;20024;-65
2022/12/08 08:55:09;;;;;;;16.33;14.73;;;4.50;99.90;;;;;;5112687;28;20106;-67
2022/12/08 08:57:35;;;;;;;15.80;14.15;;;4.60;99.90;;;;;;5113135;28;20024;-65
2022/12/08 09:00:03;;;;;;;16.00;14.40;;;4.60;99.90;;;;;;5112901;28;20027;-67
2022/12/08 09:02:29;;;;;;;17.48;15.75;;;4.60;99.90;;;;;;5112497;28;20050;-65
2022/12/08 09:04:54;;;;;;;19.23;17.08;;;4.70;99.90;;;;;;5094664;28;20051;-65
2022/12/08 09:07:20;;;;;;;17.95;16.02;;;4.80;99.90;;;;;;5112540;28;20080;-64
2022/12/08 09:09:46;;;;;;;18.17;16.33;;;5.00;99.90;;;;;;5113055;28;20024;-64
2022/12/08 09:12:12;;;;;;;18.30;16.40;;;5.00;99.90;;;;;;5112878;28;20047;-65
2022/12/08 09:14:38;;;;;;;16.95;15.25;;;5.10;99.90;;;;;;5093989;28;20124;-66
2022/12/08 09:17:04;;;;;;;22.70;16.40;;;5.10;99.90;;;;;;5112233;28;20028;-66
2022/12/08 09:19:30;;;;;;;18.10;14.85;;;5.10;99.90;;;;;;5112275;28;20454;-65
2022/12/08 09:21:56;;;;;;;15.98;14.35;;;5.20;99.90;;;;;;5112632;28;20069;-66
2022/12/08 09:24:22;;;;;;;16.83;14.43;;;5.20;99.90;;;;;;5112443;28;20028;-65
2022/12/08 09:26:47;;;;;;;17.60;15.80;;;5.30;99.90;;;;;;5112230;28;20424;-65
2022/12/08 09:29:13;;;;;;;16.30;14.70;;;5.40;99.90;;;;;;5112677;28;20062;-65
2022/12/08 09:31:39;;;;;;;19.20;17.20;;;5.40;99.90;;;;;;5111810;28;20089;-65
2022/12/08 09:34:05;;;;;;;28.85;25.92;;;5.40;99.90;;;;;;5111880;28;20035;-66
2022/12/08 09:36:31;;;;;;;22.77;20.27;;;5.50;99.90;;;;;;5111213;28;20023;-65
2022/12/08 09:38:57;;;;;;;30.23;27.17;;;5.50;99.90;;;;;;5094730;28;20019;-65
2022/12/08 09:41:32;;;;;;;55.95;50.00;;;5.40;99.90;;;;;;5111946;28;20110;-65
2022/12/08 09:44:18;;;;;;;30.73;27.45;;;5.50;99.90;;;;;;5111674;28;20062;-66
2022/12/08 09:46:47;;;;;;;24.30;21.85;;;5.50;99.90;;;;;;5111624;28;20039;-65
2022/12/08 09:49:20;;;;;;;17.88;16.08;;;5.60;99.90;;;;;;5111337;28;20454;-65
2022/12/08 09:51:45;;;;;;;17.85;15.95;;;5.70;99.90;;;;;;5111927;28;20024;-65
2022/12/08 09:54:31;;;;;;;16.73;14.93;;;5.70;99.90;;;;;;5112031;28;20452;-66
2022/12/08 09:57:02;;;;;;;17.65;15.85;;;5.70;99.90;;;;;;5111893;28;20073;-66
2022/12/08 09:59:33;;;;;;;19.08;17.08;;;5.60;99.90;;;;;;5111471;28;20028;-66
2022/12/08 10:02:01;;;;;;;29.10;24.27;;;5.70;99.90;;;;;;5111964;28;20035;-65
2022/12/08 10:04:37;;;;;;;32.72;28.92;;;5.80;99.90;;;;;;5112252;28;20026;-66
2022/12/08 10:07:03;;;;;;;26.88;22.35;;;5.80;99.90;;;;;;5111954;28;20066;-66
2022/12/08 10:09:39;;;;;;;34.38;30.05;;;5.80;99.90;;;;;;5111751;28;20026;-65
2022/12/08 10:12:35;;;;;;;26.08;23.17;;;5.90;99.90;;;;;;5111897;28;20035;-66
2022/12/08 10:15:28;;;;;;;19.73;17.63;;;6.00;99.90;;;;;;5111322;28;20031;-65
2022/12/08 10:17:55;;;;;;;20.60;18.45;;;5.90;99.90;;;;;;5111701;28;20016;-66
2022/12/08 10:20:23;;;;;;;18.35;16.48;;;6.10;99.90;;;;;;5111439;28;20088;-66
2022/12/08 10:23:24;;;;;;;17.20;15.40;;;6.10;99.90;;;;;;5111858;28;20051;-65
2022/12/08 10:25:58;;;;;;;16.83;15.00;;;6.10;99.90;;;;;;5106457;28;20046;-66
2022/12/08 10:28:23;;;;;;;;;;;6.10;99.90;;;;;;5112169;28;20254;-66
2022/12/08 10:30:49;;;;;;;21.05;15.95;;;6.00;99.90;;;;;;5111517;28;20436;-66
2022/12/08 10:33:18;;;;;;;18.83;15.07;;;6.10;99.90;;;;;;5111775;28;20102;-67
2022/12/08 10:35:46;;;;;;;16.38;14.73;;;6.20;99.90;;;;;;5111022;28;20446;-66
2022/12/08 10:38:29;;;;;;;17.30;15.60;;;6.20;99.90;;;;;;5111464;28;20023;-66
2022/12/08 10:41:09;;;;;;;16.02;14.32;;;6.40;99.90;;;;;;5111542;28;20032;-65
2022/12/08 10:43:43;;;;;;;16.27;14.63;;;6.30;99.90;;;;;;5111224;28;20093;-64
2022/12/08 10:46:19;;;;;;;16.35;14.50;;;6.40;99.90;;;;;;5110860;28;20085;-65
2022/12/08 10:49:04;;;;;;;16.60;13.95;;;6.50;99.90;;;;;;5111245;28;20027;-65
2022/12/08 10:51:41;;;;;;;15.18;13.68;;;6.50;99.90;;;;;;5111290;28;20051;-65
2022/12/08 10:54:42;;;;;;;16.02;14.05;;;6.50;99.90;;;;;;5111200;28;20214;-65
2022/12/08 10:57:20;;;;;;;16.95;15.15;;;6.70;99.90;;;;;;5048000;28;20037;-66
2022/12/08 10:59:45;;;;;;;16.35;14.65;;;6.60;99.90;;;;;;5050283;28;20060;-64
2022/12/08 11:02:18;;;;;;;16.25;14.57;;;6.70;99.90;;;;;;5052265;28;20536;-65
2022/12/08 11:04:45;;;;;;;18.70;14.55;;;6.70;99.90;;;;;;5051915;28;20151;-66
2022/12/08 11:07:19;;;;;;;16.80;14.40;;;6.80;99.90;;;;;;5052074;28;20032;-64
2022/12/08 11:09:49;;;;;;;15.90;14.27;;;6.80;99.90;;;;;;5052042;28;20210;-64
2022/12/08 11:12:17;;;;;;;15.80;14.02;;;6.90;99.90;;;;;;5051761;28;20037;-67
2022/12/08 11:14:42;;;;;;;17.65;15.07;;;6.90;99.90;;;;;;5052265;28;20029;-64
2022/12/08 11:17:15;;;;;;;16.67;13.90;;;7.20;99.90;;;;;;5050790;28;20029;-65
2022/12/08 11:19:44;;;;;;;15.15;13.32;;;6.90;99.90;;;;;;5051178;28;20051;-64
2022/12/08 11:22:32;;;;;;;14.88;13.38;;;7.00;99.90;;;;;;5052093;28;20051;-65
2022/12/08 11:25:02;;;;;;;17.30;13.85;;;7.00;99.90;;;;;;5051250;28;20037;-65
2022/12/08 11:27:28;;;;;;;16.10;14.43;;;7.00;99.90;;;;;;5051768;28;20029;-65
2022/12/08 11:29:55;;;;;;;15.43;13.95;;;7.20;99.90;;;;;;5051431;28;20047;-63
2022/12/08 11:32:21;;;;;;;15.80;14.27;;;7.20;99.90;;;;;;5093702;28;20055;-65
2022/12/08 11:34:56;;;;;;;15.05;13.43;;;7.20;99.90;;;;;;5094013;28;20032;-65
2022/12/08 11:37:41;;;;;;;15.32;13.73;;;7.20;99.90;;;;;;5111014;28;20498;-65
2022/12/08 11:40:18;;;;;;;15.75;13.43;;;7.20;99.90;;;;;;5115312;28;20024;-66
2022/12/08 11:43:22;;;;;;;15.32;13.73;;;7.30;99.90;;;;;;5114120;28;20028;-65
2022/12/08 11:45:56;;;;;;;18.73;16.77;;;7.30;99.90;;;;;;5114175;28;20104;-65
2022/12/08 11:48:40;;;;;;;14.68;13.05;;;7.30;99.90;;;;;;5114936;28;20020;-64
2022/12/08 11:51:11;;;;;;;14.98;13.38;;;7.40;99.90;;;;;;5114551;28;20023;-66
2022/12/08 11:53:55;;;;;;;15.57;13.40;;;7.40;99.90;;;;;;5113723;28;20098;-66
2022/12/08 11:56:35;;;;;;;16.45;12.43;;;7.40;99.90;;;;;;5113851;28;20035;-64
2022/12/08 11:59:11;;;;;;;14.52;13.10;;;7.50;99.90;;;;;;5114037;28;20027;-65
2022/12/08 12:01:37;;;;;;;14.18;12.77;;;7.60;99.90;;;;;;5114093;28;20497;-64
2022/12/08 12:04:26;;;;;;;14.40;12.90;;;7.70;99.90;;;;;;5114128;28;20102;-64
2022/12/08 12:07:23;;;;;;;15.27;13.77;;;7.80;99.90;;;;;;5113963;28;20028;-63
2022/12/08 12:10:16;;;;;;;16.02;14.45;;;7.80;99.90;;;;;;5114120;28;20102;-63
2022/12/08 12:12:50;;;;;;;14.57;13.07;;;7.80;99.90;;;;;;5113386;28;20024;-63
2022/12/08 12:15:27;;;;;;;14.18;12.77;;;7.80;99.90;;;;;;5113659;28;20067;-63
2022/12/08 12:18:01;;;;;;;15.20;13.60;;;7.80;99.90;;;;;;5114111;28;20474;-63
2022/12/08 12:20:32;;;;;;;15.00;13.13;;;8.10;99.90;;;;;;5113981;28;20056;-64
2022/12/08 12:23:24;;;;;;;15.25;13.65;;;8.00;99.90;;;;;;5113859;28;20396;-65
2022/12/08 12:25:59;;;;;;;13.13;11.77;;;8.10;99.90;;;;;;5077715;28;20165;-66
2022/12/08 12:28:54;;;;;;;14.63;13.15;;;7.90;99.90;;;;;;5113619;28;20110;-67
2022/12/08 12:31:58;;;;;;;14.02;12.63;;;8.10;99.90;;;;;;5108444;28;20442;-66
2022/12/08 12:34:27;;;;;;;14.27;12.80;;;8.00;99.90;;;;;;5097670;28;20130;-64
2022/12/08 12:37:04;;;;;;;15.80;12.80;;;8.00;99.90;;;;;;5113125;28;20589;-64
2022/12/08 12:39:34;;;;;;;16.00;14.30;;;7.90;99.90;;;;;;5113134;28;20430;-65
2022/12/08 12:42:02;;;;;;;14.40;12.90;;;8.10;99.90;;;;;;5113619;28;20098;-66
2022/12/08 12:44:28;;;;;;;13.70;12.40;;;8.20;99.90;;;;;;5095223;28;20479;-67
2022/12/08 12:46:55;;;;;;;13.98;12.57;;;8.20;99.90;;;;;;5112681;28;20055;-66
2022/12/08 12:49:39;;;;;;;14.25;12.75;;;8.30;99.90;;;;;;5113185;28;20039;-66
2022/12/08 12:52:20;;;;;;;14.65;12.95;;;8.20;99.90;;;;;;5113168;28;20020;-67
2022/12/08 12:54:48;;;;;;;18.90;16.90;;;8.30;99.90;;;;;;5112754;28;20395;-67
2022/12/08 12:57:19;;;;;;;17.10;15.05;;;8.40;99.90;;;;;;5113036;28;20377;-66